This is the latest recevied weather packets stored in our database for station/object OE3FJB-25. If no packets are shown the sender has not sent any weather packets the latest 10 day(s).
| Time | Temp. | Humidity | Pressure | Rain* | Wind** | Luminosity | Snow |
|---|---|---|---|---|---|---|---|
| 1777714305 | 19.44° C | 41% | 1027.1 hPa | - | - | - | - |
| 1777713706 | 21.11° C | 39% | 1027.2 hPa | - | - | - | - |
| 1777713107 | 22.22° C | 41% | 1027.4 hPa | - | - | - | - |
| 1777712509 | 21.11° C | 45% | 1027.4 hPa | - | - | - | - |
| 1777711910 | 18.89° C | 51% | 1027.5 hPa | - | - | - | - |
| 1777711312 | 18.89° C | 51% | 1027.4 hPa | - | - | - | - |
| 1777710713 | 18.33° C | 53% | 1027.6 hPa | - | - | - | - |
| 1777710114 | 16.67° C | 61% | 1027.6 hPa | - | - | - | - |
| 1777709516 | 16.11° C | 62% | 1027.7 hPa | - | - | - | - |
| 1777708917 | 17.22° C | 59% | 1027.7 hPa | - | - | - | - |
| 1777708319 | 16.11° C | 64% | 1027.7 hPa | - | - | - | - |
| 1777707720 | 16.67° C | 63% | 1027.7 hPa | - | - | - | - |
| 1777707121 | 17.22° C | 62% | 1027.7 hPa | - | - | - | - |
| 1777706523 | 17.78° C | 61% | 1027.8 hPa | - | - | - | - |
| 1777705921 | 18.33° C | 66% | 1027.8 hPa | - | - | - | - |
| 1777705323 | 15.56° C | 82% | 1027.9 hPa | - | - | - | - |
| 1777704724 | 15.56° C | 84% | 1027.8 hPa | - | - | - | - |
| 1777704125 | 16.11° C | 83% | 1027.8 hPa | - | - | - | - |
| 1777703527 | 15.56° C | 89% | 1027.9 hPa | - | - | - | - |
| 1777702928 | 13.89° C | 97% | 1027.9 hPa | - | - | - | - |
| 1777702329 | 13.33° C | 99% | 1027.9 hPa | - | - | - | - |
| 1777701731 | 12.78° C | 99% | 1027.8 hPa | - | - | - | - |
| 1777701132 | 12.22° C | 99% | 1027.8 hPa | - | - | - | - |
| 1777700534 | 12.22° C | 99% | 1027.7 hPa | - | - | - | - |
| 1777699935 | 12.22° C | 99% | 1027.7 hPa | - | - | - | - |
* Rain since midnight (hover to see other rain measurements)
** Current wind speed in m/s (hover to see current wind gust speed)